Time;durP1;ratioP1;P1;durP2;ratioP2;P2;SDS_P1;SDS_P2;PMS_P1;PMS_P2;Temp;Humidity;BMP_temperature;BMP_pressure;BME280_temperature;BME280_humidity;BME280_pressure;Samples;Min_cycle;Max_cycle;Signal;HPM_P1;HPM_P2
2021/08/08 00:01:26;;;;;;;3.40;2.78;;;;;;;;;;5091702;28;20084;-45
2021/08/08 00:03:53;;;;;;;5.07;2.75;;;;;;;;;;5091726;28;20432;-45
2021/08/08 00:06:19;;;;;;;3.50;2.78;;;;;;;;;;5074036;28;20482;-44
2021/08/08 00:08:45;;;;;;;2.90;2.70;;;;;;;;;;5091813;28;20024;-45
2021/08/08 00:11:11;;;;;;;2.92;2.63;;;;;;;;;;5091668;28;20020;-46
2021/08/08 00:13:37;;;;;;;3.08;2.78;;;;;;;;;;5073648;28;20025;-43
2021/08/08 00:16:04;;;;;;;2.53;2.40;;;;;;;;;;5091638;28;20081;-44
2021/08/08 00:18:30;;;;;;;2.85;2.53;;;;;;;;;;5091671;28;20035;-44
2021/08/08 00:20:56;;;;;;;2.85;2.50;;;;;;;;;;5091678;28;20111;-43
2021/08/08 00:23:22;;;;;;;2.70;2.42;;;;;;;;;;5091685;28;20024;-45
2021/08/08 00:25:49;;;;;;;3.85;2.75;;;;;;;;;;5091699;28;20366;-44
2021/08/08 00:28:15;;;;;;;3.50;2.40;;;;;;;;;;5091722;28;20118;-45
2021/08/08 00:30:41;;;;;;;2.78;2.58;;;;;;;;;;5091694;28;20019;-44
2021/08/08 00:33:07;;;;;;;3.08;2.78;;;;;;;;;;5093080;28;20387;-43
2021/08/08 00:35:34;;;;;;;3.65;2.60;;;;;;;;;;5095670;28;20063;-43
2021/08/08 00:38:00;;;;;;;2.90;2.47;;;;;;;;;;5095739;28;20021;-44
2021/08/08 00:40:26;;;;;;;2.92;2.58;;;;;;;;;;5095549;28;20020;-44
2021/08/08 00:42:52;;;;;;;2.80;2.58;;;;;;;;;;5095505;28;20024;-44
2021/08/08 00:45:19;;;;;;;2.80;2.60;;;;;;;;;;5095452;28;20024;-43
2021/08/08 00:47:46;;;;;;;2.80;2.50;;;;;;;;;;5095506;28;20543;-44
2021/08/08 00:50:12;;;;;;;2.40;2.30;;;;;;;;;;5095522;28;20099;-46
2021/08/08 00:52:39;;;;;;;2.60;2.40;;;;;;;;;;5095622;28;20444;-45
2021/08/08 00:55:05;;;;;;;3.00;2.80;;;;;;;;;;5095599;28;20035;-44
2021/08/08 00:57:31;;;;;;;3.50;2.40;;;;;;;;;;5095429;28;20784;-44
2021/08/08 00:59:57;;;;;;;3.40;2.40;;;;;;;;;;5095213;28;20066;-44
2021/08/08 01:02:23;;;;;;;3.00;2.80;;;;;;;;;;5095017;28;20059;-44
2021/08/08 01:04:56;;;;;;;2.88;2.67;;;;;;;;;;5095017;28;20052;-45
2021/08/08 01:07:28;;;;;;;2.67;2.50;;;;;;;;;;5095129;28;20064;-45
2021/08/08 01:09:55;;;;;;;2.75;2.55;;;;;;;;;;5095037;28;20031;-45
2021/08/08 01:12:22;;;;;;;4.00;2.90;;;;;;;;;;5077044;28;20027;-44
2021/08/08 01:14:49;;;;;;;3.03;2.65;;;;;;;;;;5094836;28;20044;-43
2021/08/08 01:17:16;;;;;;;2.60;2.40;;;;;;;;;;5094704;28;20044;-43
2021/08/08 01:19:47;;;;;;;2.83;2.63;;;;;;;;;;5094925;28;20047;-44
2021/08/08 01:22:13;;;;;;;3.10;2.75;;;;;;;;;;5094596;28;20116;-47
2021/08/08 01:24:39;;;;;;;2.95;2.72;;;;;;;;;;5077619;28;20091;-45
2021/08/08 01:27:05;;;;;;;3.10;2.90;;;;;;;;;;5074459;28;20104;-44
2021/08/08 01:29:33;;;;;;;2.75;2.55;;;;;;;;;;5074498;28;20024;-45
2021/08/08 01:31:59;;;;;;;3.33;2.58;;;;;;;;;;5074353;28;20040;-44
2021/08/08 01:34:25;;;;;;;2.70;2.50;;;;;;;;;;5088902;28;20020;-44
2021/08/08 01:36:51;;;;;;;5.40;3.13;;;;;;;;;;5094419;28;20032;-44
2021/08/08 01:39:21;;;;;;;2.63;2.42;;;;;;;;;;5094387;28;20027;-44
2021/08/08 01:41:55;;;;;;;3.63;2.85;;;;;;;;;;5074051;28;20390;-44
2021/08/08 01:44:22;;;;;;;3.03;2.83;;;;;;;;;;5073752;28;20067;-46
2021/08/08 01:46:51;;;;;;;2.60;2.40;;;;;;;;;;5074134;28;20039;-44
2021/08/08 01:49:19;;;;;;;2.85;2.47;;;;;;;;;;5074083;28;20020;-45
2021/08/08 01:51:45;;;;;;;2.83;2.63;;;;;;;;;;5074038;28;20056;-45
2021/08/08 01:54:11;;;;;;;2.92;2.72;;;;;;;;;;5073985;28;20052;-45
2021/08/08 01:56:37;;;;;;;2.90;2.70;;;;;;;;;;5091730;28;20032;-45
2021/08/08 01:59:03;;;;;;;3.08;2.80;;;;;;;;;;5094058;28;20020;-44
2021/08/08 02:01:30;;;;;;;3.95;2.92;;;;;;;;;;5093958;28;20028;-44
2021/08/08 02:03:56;;;;;;;2.88;2.67;;;;;;;;;;5093956;28;20519;-45
2021/08/08 02:06:22;;;;;;;3.00;2.80;;;;;;;;;;5093908;28;20154;-46
2021/08/08 02:08:48;;;;;;;4.05;2.90;;;;;;;;;;5093861;28;20121;-45
2021/08/08 02:11:14;;;;;;;3.67;2.67;;;;;;;;;;5093783;28;20020;-45
2021/08/08 02:13:40;;;;;;;2.75;2.55;;;;;;;;;;5093739;28;20057;-44
2021/08/08 02:16:06;;;;;;;3.13;2.92;;;;;;;;;;5093740;28;20034;-43
2021/08/08 02:18:32;;;;;;;2.78;2.58;;;;;;;;;;5093695;28;20047;-47
2021/08/08 02:20:58;;;;;;;2.90;2.70;;;;;;;;;;5075500;28;20466;-46
2021/08/08 02:23:24;;;;;;;2.92;2.72;;;;;;;;;;5093537;28;20433;-47
2021/08/08 02:25:51;;;;;;;3.35;2.72;;;;;;;;;;5075455;28;20020;-48
2021/08/08 02:28:17;;;;;;;2.72;2.53;;;;;;;;;;5093591;28;20073;-45
2021/08/08 02:30:44;;;;;;;2.53;2.33;;;;;;;;;;5093505;28;20024;-45
2021/08/08 02:33:10;;;;;;;2.95;2.65;;;;;;;;;;5075203;28;20047;-44
2021/08/08 02:35:36;;;;;;;3.08;2.80;;;;;;;;;;5093465;28;20390;-44
2021/08/08 02:38:02;;;;;;;3.30;3.00;;;;;;;;;;5093330;28;20028;-47
2021/08/08 02:40:28;;;;;;;3.30;2.90;;;;;;;;;;5093162;28;20016;-44
2021/08/08 02:42:54;;;;;;;2.70;2.50;;;;;;;;;;5093196;28;20027;-44
2021/08/08 02:45:20;;;;;;;3.33;3.03;;;;;;;;;;5093053;28;20382;-44
2021/08/08 02:47:46;;;;;;;3.00;2.70;;;;;;;;;;5093311;28;20032;-44
2021/08/08 02:50:12;;;;;;;2.40;2.30;;;;;;;;;;5093052;28;20028;-46
2021/08/08 02:52:41;;;;;;;3.20;2.88;;;;;;;;;;5093053;28;20051;-45
2021/08/08 02:55:08;;;;;;;3.10;2.80;;;;;;;;;;5092821;28;20028;-43
2021/08/08 02:57:34;;;;;;;3.55;3.25;;;;;;;;;;5092981;28;20028;-44
2021/08/08 03:00:00;;;;;;;4.13;3.47;;;;;;;;;;5092928;28;20069;-45
2021/08/08 03:02:26;;;;;;;2.97;2.78;;;;;;;;;;5092733;28;20069;-48
2021/08/08 03:04:52;;;;;;;3.92;3.30;;;;;;;;;;5092708;28;20085;-48
2021/08/08 03:07:18;;;;;;;3.78;3.05;;;;;;;;;;5092692;28;20463;-48
2021/08/08 03:09:44;;;;;;;3.55;3.00;;;;;;;;;;5092664;28;20028;-44
2021/08/08 03:12:10;;;;;;;3.40;3.05;;;;;;;;;;5092544;28;20073;-45
2021/08/08 03:14:36;;;;;;;3.45;3.15;;;;;;;;;;5092591;28;20035;-44
2021/08/08 03:17:02;;;;;;;3.78;2.80;;;;;;;;;;5092350;28;20044;-44
2021/08/08 03:19:28;;;;;;;3.17;2.75;;;;;;;;;;5092664;28;20124;-44
2021/08/08 03:21:54;;;;;;;3.20;2.97;;;;;;;;;;5092349;28;20063;-44
2021/08/08 03:24:20;;;;;;;3.05;2.83;;;;;;;;;;5092460;28;20044;-44
2021/08/08 03:26:46;;;;;;;3.90;3.40;;;;;;;;;;5092595;28;20112;-44
2021/08/08 03:29:12;;;;;;;2.78;2.58;;;;;;;;;;5092521;28;20024;-45
2021/08/08 03:31:38;;;;;;;2.97;2.78;;;;;;;;;;5092151;28;20028;-44
2021/08/08 03:34:05;;;;;;;3.08;2.88;;;;;;;;;;5092198;28;20494;-44
2021/08/08 03:36:31;;;;;;;3.00;2.80;;;;;;;;;;5092333;28;20103;-44
2021/08/08 03:38:57;;;;;;;3.35;2.80;;;;;;;;;;5092323;28;20364;-43
2021/08/08 03:41:23;;;;;;;4.47;2.92;;;;;;;;;;5073958;28;20031;-44
2021/08/08 03:43:49;;;;;;;3.17;2.90;;;;;;;;;;5092043;28;20024;-44
2021/08/08 03:46:15;;;;;;;3.72;3.25;;;;;;;;;;5092017;28;20020;-45
2021/08/08 03:48:41;;;;;;;4.07;3.22;;;;;;;;;;5092162;28;20020;-47
2021/08/08 03:51:07;;;;;;;3.15;2.95;;;;;;;;;;5092218;28;20024;-44
2021/08/08 03:53:33;;;;;;;3.50;3.30;;;;;;;;;;5092027;28;20467;-44
2021/08/08 03:55:59;;;;;;;3.05;2.85;;;;;;;;;;5074042;28;20482;-44
2021/08/08 03:58:30;;;;;;;3.40;3.10;;;;;;;;;;5091960;28;20024;-44
2021/08/08 04:00:56;;;;;;;3.30;3.00;;;;;;;;;;5092285;28;20143;-44
2021/08/08 04:03:22;;;;;;;3.92;3.20;;;;;;;;;;5091986;28;20130;-44
2021/08/08 04:05:48;;;;;;;3.05;2.85;;;;;;;;;;5091884;28;20020;-44
2021/08/08 04:08:14;;;;;;;3.08;2.78;;;;;;;;;;5091832;28;20017;-45
2021/08/08 04:10:40;;;;;;;3.38;3.08;;;;;;;;;;5091804;28;20028;-43
2021/08/08 04:13:06;;;;;;;3.83;3.17;;;;;;;;;;5091831;28;20395;-44
2021/08/08 04:15:32;;;;;;;3.63;3.10;;;;;;;;;;5091632;28;20028;-43
2021/08/08 04:17:58;;;;;;;3.50;3.20;;;;;;;;;;5091536;28;20055;-44
2021/08/08 04:20:24;;;;;;;3.38;3.05;;;;;;;;;;5091695;28;20020;-46
2021/08/08 04:22:50;;;;;;;3.45;3.15;;;;;;;;;;5091622;28;20051;-43
2021/08/08 04:25:16;;;;;;;3.30;3.10;;;;;;;;;;5091752;28;20456;-45
2021/08/08 04:27:42;;;;;;;3.67;3.38;;;;;;;;;;5091735;28;20371;-44
2021/08/08 04:30:08;;;;;;;4.28;3.28;;;;;;;;;;5091528;28;20020;-44
2021/08/08 04:32:34;;;;;;;3.75;3.22;;;;;;;;;;5091509;28;20028;-45
2021/08/08 04:35:01;;;;;;;5.75;3.20;;;;;;;;;;5091600;28;20028;-45
2021/08/08 04:37:27;;;;;;;3.30;3.10;;;;;;;;;;5091429;28;20051;-45
2021/08/08 04:39:53;;;;;;;3.72;3.15;;;;;;;;;;5091544;28;20034;-46
2021/08/08 04:42:19;;;;;;;3.55;3.25;;;;;;;;;;5091392;28;20032;-45
2021/08/08 04:44:45;;;;;;;3.80;3.50;;;;;;;;;;5073505;28;20027;-44
2021/08/08 04:47:11;;;;;;;3.42;3.13;;;;;;;;;;5091390;28;20390;-44
2021/08/08 04:49:37;;;;;;;4.03;3.70;;;;;;;;;;5091351;28;20020;-45
2021/08/08 04:52:04;;;;;;;3.78;3.20;;;;;;;;;;5091445;28;20084;-43
2021/08/08 04:54:30;;;;;;;3.38;3.13;;;;;;;;;;5091496;28;20070;-47
2021/08/08 04:56:56;;;;;;;4.10;3.50;;;;;;;;;;5091612;28;20518;-45
2021/08/08 04:59:22;;;;;;;3.67;3.40;;;;;;;;;;5091587;28;20036;-45
2021/08/08 05:01:48;;;;;;;3.13;2.90;;;;;;;;;;5091393;28;20028;-46
2021/08/08 05:04:14;;;;;;;5.45;3.60;;;;;;;;;;5091311;28;20020;-45
2021/08/08 05:06:40;;;;;;;3.83;3.53;;;;;;;;;;5091201;28;20502;-47
2021/08/08 05:09:07;;;;;;;3.53;3.22;;;;;;;;;;5091281;28;20016;-47
2021/08/08 05:11:33;;;;;;;3.55;3.25;;;;;;;;;;5073236;28;20475;-48
2021/08/08 05:14:00;;;;;;;3.58;2.97;;;;;;;;;;5091115;28;20024;-45
2021/08/08 05:16:26;;;;;;;4.03;3.42;;;;;;;;;;5090832;28;20130;-45
2021/08/08 05:18:52;;;;;;;3.33;3.03;;;;;;;;;;5091907;28;20463;-47
2021/08/08 05:21:18;;;;;;;3.15;2.90;;;;;;;;;;5093949;28;20051;-45
2021/08/08 05:23:44;;;;;;;3.70;3.40;;;;;;;;;;5093880;28;20031;-45
2021/08/08 05:26:10;;;;;;;3.80;3.50;;;;;;;;;;5092951;28;20030;-44
2021/08/08 05:28:40;;;;;;;4.10;3.70;;;;;;;;;;5093864;28;20494;-44
2021/08/08 05:31:06;;;;;;;6.38;3.90;;;;;;;;;;5094455;28;20077;-45
2021/08/08 05:33:32;;;;;;;4.28;3.60;;;;;;;;;;5094010;28;20032;-44
2021/08/08 05:35:58;;;;;;;3.60;3.30;;;;;;;;;;5093949;28;20032;-44
2021/08/08 05:38:24;;;;;;;6.03;4.00;;;;;;;;;;5093433;28;20399;-44
2021/08/08 05:40:50;;;;;;;4.10;3.65;;;;;;;;;;5075103;28;20032;-44
2021/08/08 05:43:18;;;;;;;3.90;3.60;;;;;;;;;;5093638;28;20032;-45
2021/08/08 05:45:47;;;;;;;4.00;3.40;;;;;;;;;;5076177;28;20020;-45
2021/08/08 05:48:14;;;;;;;3.83;3.53;;;;;;;;;;5076223;28;20078;-44
2021/08/08 05:50:40;;;;;;;4.63;3.55;;;;;;;;;;5093635;28;20035;-42
2021/08/08 05:53:06;;;;;;;4.05;3.55;;;;;;;;;;5092657;28;20032;-41
2021/08/08 05:55:34;;;;;;;3.90;3.60;;;;;;;;;;5092887;28;20074;-42
2021/08/08 05:58:00;;;;;;;5.30;3.83;;;;;;;;;;5093022;28;20073;-41
2021/08/08 06:00:26;;;;;;;3.95;3.60;;;;;;;;;;5075183;28;20383;-42
2021/08/08 06:02:52;;;;;;;3.63;3.22;;;;;;;;;;5093529;28;20031;-41
2021/08/08 06:05:18;;;;;;;3.90;3.60;;;;;;;;;;5092287;28;20043;-41
2021/08/08 06:07:44;;;;;;;3.42;3.20;;;;;;;;;;5093441;28;20024;-41
2021/08/08 06:10:10;;;;;;;3.72;3.42;;;;;;;;;;5093613;28;20027;-41
2021/08/08 06:12:37;;;;;;;3.30;3.10;;;;;;;;;;5093583;28;20045;-41
2021/08/08 06:15:03;;;;;;;4.07;3.60;;;;;;;;;;5058910;28;20024;-41
2021/08/08 06:17:32;;;;;;;3.30;3.00;;;;;;;;;;5093597;28;20098;-41
2021/08/08 06:19:58;;;;;;;3.38;3.17;;;;;;;;;;5075599;28;20028;-41
2021/08/08 06:22:24;;;;;;;4.10;2.97;;;;;;;;;;5093463;28;20482;-41
2021/08/08 06:24:50;;;;;;;3.30;3.08;;;;;;;;;;5093309;28;20028;-41
2021/08/08 06:27:16;;;;;;;3.08;2.88;;;;;;;;;;5093343;28;20023;-41
2021/08/08 06:29:42;;;;;;;3.00;2.80;;;;;;;;;;5092993;28;20488;-42
2021/08/08 06:32:08;;;;;;;2.92;2.72;;;;;;;;;;5074511;28;20136;-42
2021/08/08 06:34:34;;;;;;;3.60;3.35;;;;;;;;;;5093416;28;20039;-41
2021/08/08 06:37:00;;;;;;;3.10;2.90;;;;;;;;;;5093216;28;20028;-42
2021/08/08 06:39:26;;;;;;;3.60;3.30;;;;;;;;;;5093005;28;20035;-41
2021/08/08 06:41:52;;;;;;;3.33;3.13;;;;;;;;;;5092976;28;20405;-41
2021/08/08 06:44:19;;;;;;;3.03;2.83;;;;;;;;;;5092927;28;20024;-42
2021/08/08 06:46:45;;;;;;;3.38;3.17;;;;;;;;;;5093023;28;20020;-41
2021/08/08 06:49:11;;;;;;;3.20;3.00;;;;;;;;;;5092932;28;20074;-42
2021/08/08 06:51:37;;;;;;;3.22;3.03;;;;;;;;;;5092849;28;20020;-41
2021/08/08 06:54:04;;;;;;;3.50;3.20;;;;;;;;;;5092797;28;20592;-41
2021/08/08 06:56:32;;;;;;;3.85;2.72;;;;;;;;;;5092728;28;20378;-41
2021/08/08 06:59:17;;;;;;;4.88;3.00;;;;;;;;;;5074493;28;20475;-41
2021/08/08 07:01:43;;;;;;;3.13;2.80;;;;;;;;;;5092461;28;20028;-41
2021/08/08 07:04:09;;;;;;;3.30;3.00;;;;;;;;;;5092606;28;20383;-42
2021/08/08 07:06:35;;;;;;;3.15;2.95;;;;;;;;;;5092559;28;20028;-41
2021/08/08 07:09:02;;;;;;;3.35;3.05;;;;;;;;;;5092490;28;20028;-41
2021/08/08 07:11:28;;;;;;;3.38;3.08;;;;;;;;;;5092567;28;20020;-42
2021/08/08 07:13:56;;;;;;;3.05;2.83;;;;;;;;;;5092410;28;20020;-41
2021/08/08 07:16:22;;;;;;;3.78;3.28;;;;;;;;;;5092274;28;20055;-41
2021/08/08 07:18:48;;;;;;;3.20;3.00;;;;;;;;;;5092444;28;20544;-40
2021/08/08 07:21:14;;;;;;;3.30;3.10;;;;;;;;;;5092261;28;20065;-40
2021/08/08 07:23:40;;;;;;;3.38;3.15;;;;;;;;;;5092273;28;20730;-41
2021/08/08 07:26:06;;;;;;;3.60;3.30;;;;;;;;;;5092141;28;20031;-41
2021/08/08 07:28:32;;;;;;;3.20;3.00;;;;;;;;;;5074335;28;20463;-41
2021/08/08 07:30:58;;;;;;;3.35;3.05;;;;;;;;;;5092105;28;20069;-41
2021/08/08 07:33:24;;;;;;;3.80;3.50;;;;;;;;;;5092521;28;20028;-42
2021/08/08 07:35:51;;;;;;;4.47;3.42;;;;;;;;;;5092123;28;20035;-41
2021/08/08 07:38:17;;;;;;;3.50;3.20;;;;;;;;;;5092259;28;20055;-41
2021/08/08 07:40:43;;;;;;;3.45;3.15;;;;;;;;;;5092261;28;20459;-41
2021/08/08 07:43:10;;;;;;;3.80;3.50;;;;;;;;;;5091924;28;20028;-43
2021/08/08 07:45:37;;;;;;;4.22;3.70;;;;;;;;;;5092016;28;20020;-42
2021/08/08 07:48:03;;;;;;;3.25;2.92;;;;;;;;;;5092046;28;20395;-41
2021/08/08 07:50:29;;;;;;;3.28;3.08;;;;;;;;;;5091788;28;20020;-41
2021/08/08 07:52:55;;;;;;;3.10;2.90;;;;;;;;;;5091854;28;20462;-41
2021/08/08 07:55:23;;;;;;;3.92;3.08;;;;;;;;;;5091697;28;20039;-41
2021/08/08 07:57:49;;;;;;;3.20;2.88;;;;;;;;;;5091817;28;20024;-41
2021/08/08 08:00:15;;;;;;;2.70;2.50;;;;;;;;;;5091673;28;20024;-41
2021/08/08 08:02:41;;;;;;;3.90;2.95;;;;;;;;;;5091557;28;20024;-41
2021/08/08 08:05:08;;;;;;;3.10;2.90;;;;;;;;;;5091475;28;20027;-41
2021/08/08 08:07:34;;;;;;;3.38;3.08;;;;;;;;;;5091606;28;20455;-41
2021/08/08 08:10:00;;;;;;;3.15;2.85;;;;;;;;;;5091572;28;20041;-41
2021/08/08 08:12:26;;;;;;;6.38;3.42;;;;;;;;;;5091652;28;20031;-42
2021/08/08 08:14:52;;;;;;;3.05;2.80;;;;;;;;;;5073445;28;20039;-42
2021/08/08 08:17:18;;;;;;;3.30;3.00;;;;;;;;;;5091189;28;20050;-41
2021/08/08 08:19:45;;;;;;;3.00;2.80;;;;;;;;;;5091415;28;20099;-41
2021/08/08 08:22:15;;;;;;;3.00;2.80;;;;;;;;;;5091537;28;20024;-41
2021/08/08 08:24:42;;;;;;;3.20;3.00;;;;;;;;;;5091474;28;20020;-41
2021/08/08 08:27:08;;;;;;;3.22;2.92;;;;;;;;;;5091345;28;20421;-41
2021/08/08 08:29:34;;;;;;;2.85;2.65;;;;;;;;;;5091457;28;20028;-41
2021/08/08 08:32:00;;;;;;;3.08;2.78;;;;;;;;;;5091322;28;20031;-41
2021/08/08 08:34:26;;;;;;;3.00;2.80;;;;;;;;;;5091365;28;20466;-40
2021/08/08 08:36:53;;;;;;;2.95;2.75;;;;;;;;;;5091349;28;20031;-41
2021/08/08 08:39:19;;;;;;;2.63;2.42;;;;;;;;;;5091265;28;20031;-42
2021/08/08 08:41:45;;;;;;;3.10;2.90;;;;;;;;;;5091247;28;20036;-41
2021/08/08 08:44:11;;;;;;;3.17;2.97;;;;;;;;;;5091324;28;20479;-41
2021/08/08 08:46:40;;;;;;;2.63;2.40;;;;;;;;;;5091112;28;20479;-41
2021/08/08 08:49:09;;;;;;;2.80;2.60;;;;;;;;;;5091224;28;20024;-41
2021/08/08 08:51:39;;;;;;;2.60;2.40;;;;;;;;;;5091410;28;20364;-41
2021/08/08 08:54:05;;;;;;;3.05;2.63;;;;;;;;;;5092478;28;20031;-42
2021/08/08 08:56:31;;;;;;;2.42;2.33;;;;;;;;;;5095498;28;20020;-42
2021/08/08 08:58:58;;;;;;;2.40;2.30;;;;;;;;;;5095084;28;20077;-41
2021/08/08 09:01:25;;;;;;;2.78;2.58;;;;;;;;;;5095015;28;20479;-41
2021/08/08 09:03:51;;;;;;;2.40;2.30;;;;;;;;;;5095159;28;20385;-41
2021/08/08 09:06:17;;;;;;;2.40;2.30;;;;;;;;;;5094927;28;20028;-40
2021/08/08 09:08:43;;;;;;;2.75;2.55;;;;;;;;;;5094897;28;20034;-40
2021/08/08 09:11:10;;;;;;;2.60;2.40;;;;;;;;;;5094745;28;20028;-40
2021/08/08 09:13:55;;;;;;;3.05;2.60;;;;;;;;;;5094696;28;20016;-41
2021/08/08 09:16:25;;;;;;;2.60;2.40;;;;;;;;;;5094568;28;20024;-41
2021/08/08 09:18:52;;;;;;;2.40;2.30;;;;;;;;;;5094654;28;20024;-41
2021/08/08 09:21:18;;;;;;;2.55;2.35;;;;;;;;;;5094588;28;20069;-41
2021/08/08 09:23:44;;;;;;;2.53;2.33;;;;;;;;;;5094551;28;20025;-41
2021/08/08 09:26:11;;;;;;;3.28;2.50;;;;;;;;;;5076275;28;20023;-42
2021/08/08 09:28:37;;;;;;;2.42;2.28;;;;;;;;;;5094583;28;20024;-41
2021/08/08 09:31:03;;;;;;;2.47;2.38;;;;;;;;;;5094503;28;20090;-41
2021/08/08 09:33:29;;;;;;;2.40;2.30;;;;;;;;;;5094454;28;20119;-41
2021/08/08 09:35:55;;;;;;;2.65;2.30;;;;;;;;;;5094359;28;20167;-40
2021/08/08 09:38:22;;;;;;;2.33;2.22;;;;;;;;;;5094197;28;20016;-41
2021/08/08 09:40:58;;;;;;;2.28;2.17;;;;;;;;;;5094292;28;20028;-41
2021/08/08 09:43:25;;;;;;;2.47;2.30;;;;;;;;;;5094337;28;20125;-41
2021/08/08 09:45:51;;;;;;;2.17;1.92;;;;;;;;;;5094346;28;20020;-41
2021/08/08 09:48:18;;;;;;;2.33;2.20;;;;;;;;;;5076045;28;20028;-41
2021/08/08 09:50:44;;;;;;;1.80;1.70;;;;;;;;;;5094082;28;20024;-41
2021/08/08 09:53:16;;;;;;;2.20;2.00;;;;;;;;;;5075870;28;20463;-41
2021/08/08 09:55:42;;;;;;;1.98;1.80;;;;;;;;;;5094042;28;20048;-42
2021/08/08 09:58:11;;;;;;;1.90;1.80;;;;;;;;;;5093887;28;20039;-42
2021/08/08 10:00:41;;;;;;;2.10;1.90;;;;;;;;;;5093915;28;20070;-41
2021/08/08 10:03:08;;;;;;;1.90;1.80;;;;;;;;;;5093701;28;20035;-41
2021/08/08 10:05:36;;;;;;;1.70;1.60;;;;;;;;;;5093053;28;20027;-41
2021/08/08 10:08:12;;;;;;;1.75;1.58;;;;;;;;;;5075692;28;20332;-41
2021/08/08 10:10:39;;;;;;;1.83;1.73;;;;;;;;;;5093986;28;20024;-39
2021/08/08 10:13:05;;;;;;;1.70;1.60;;;;;;;;;;5075562;28;20390;-41
2021/08/08 10:15:31;;;;;;;2.05;1.95;;;;;;;;;;5093653;28;20028;-41
2021/08/08 10:17:59;;;;;;;1.88;1.77;;;;;;;;;;5093500;28;20056;-41
2021/08/08 10:20:25;;;;;;;1.67;1.58;;;;;;;;;;5093119;28;20032;-41
2021/08/08 10:22:54;;;;;;;2.10;1.98;;;;;;;;;;5092640;28;20032;-40
2021/08/08 10:25:20;;;;;;;2.42;2.22;;;;;;;;;;5089819;28;20027;-41
2021/08/08 10:27:46;;;;;;;1.90;1.80;;;;;;;;;;5083614;28;20103;-41
2021/08/08 10:30:12;;;;;;;1.65;1.55;;;;;;;;;;5086184;28;20016;-41
2021/08/08 10:32:38;;;;;;;1.73;1.63;;;;;;;;;;5088488;28;20097;-41
2021/08/08 10:35:12;;;;;;;1.52;1.45;;;;;;;;;;5087604;28;20020;-41
2021/08/08 10:37:39;;;;;;;1.63;1.58;;;;;;;;;;5081892;28;20033;-40
2021/08/08 10:40:05;;;;;;;3.05;1.70;;;;;;;;;;5081631;28;20044;-40
2021/08/08 10:42:40;;;;;;;1.63;1.52;;;;;;;;;;5091578;28;20107;-41
2021/08/08 10:45:07;;;;;;;1.30;1.30;;;;;;;;;;5093316;28;20062;-39
2021/08/08 10:47:34;;;;;;;1.60;1.50;;;;;;;;;;5092309;28;20030;-40
2021/08/08 10:50:09;;;;;;;4.32;1.55;;;;;;;;;;5092488;28;20020;-41
2021/08/08 10:52:42;;;;;;;1.42;1.40;;;;;;;;;;5092978;28;20016;-41
2021/08/08 10:55:08;;;;;;;2.13;1.65;;;;;;;;;;5092982;28;20065;-41
2021/08/08 10:57:43;;;;;;;1.48;1.38;;;;;;;;;;5092875;28;20035;-41
2021/08/08 11:00:13;;;;;;;1.20;1.20;;;;;;;;;;5074026;28;20035;-42
2021/08/08 11:02:39;;;;;;;1.70;1.60;;;;;;;;;;5092739;28;20035;-42
2021/08/08 11:05:18;;;;;;;1.25;1.20;;;;;;;;;;5092654;28;20028;-40
2021/08/08 11:07:46;;;;;;;1.50;1.50;;;;;;;;;;5092777;28;20479;-41
2021/08/08 11:10:13;;;;;;;1.58;1.38;;;;;;;;;;5092552;28;20028;-41
2021/08/08 11:12:40;;;;;;;0.95;0.95;;;;;;;;;;5092569;28;20032;-40
2021/08/08 11:15:07;;;;;;;1.40;1.30;;;;;;;;;;5092685;28;20116;-40
2021/08/08 11:17:33;;;;;;;1.10;1.10;;;;;;;;;;5091329;28;20043;-40
2021/08/08 11:20:00;;;;;;;1.98;1.25;;;;;;;;;;5092464;28;20376;-41
2021/08/08 11:22:27;;;;;;;1.13;1.05;;;;;;;;;;5092272;28;20444;-40
2021/08/08 11:25:09;;;;;;;1.35;1.25;;;;;;;;;;5092339;28;20077;-41
2021/08/08 11:27:37;;;;;;;1.30;1.20;;;;;;;;;;5092283;28;20097;-41
2021/08/08 11:30:04;;;;;;;1.45;1.33;;;;;;;;;;5090884;28;20051;-45
2021/08/08 11:32:30;;;;;;;1.13;1.13;;;;;;;;;;5092066;28;20031;-41
2021/08/08 11:35:04;;;;;;;1.70;1.60;;;;;;;;;;5092200;28;20024;-41
2021/08/08 11:37:37;;;;;;;1.30;1.20;;;;;;;;;;5049112;28;20028;-40
2021/08/08 11:40:14;;;;;;;1.30;1.30;;;;;;;;;;5081336;28;20032;-41
2021/08/08 11:42:40;;;;;;;1.50;1.40;;;;;;;;;;5080804;28;20028;-40
2021/08/08 11:45:07;;;;;;;1.30;1.30;;;;;;;;;;5079649;28;20012;-41
2021/08/08 11:47:33;;;;;;;1.50;1.40;;;;;;;;;;5071433;28;20017;-41
2021/08/08 11:49:59;;;;;;;3.25;1.60;;;;;;;;;;5071702;28;20029;-42
2021/08/08 11:52:25;;;;;;;2.80;1.70;;;;;;;;;;5074237;28;20036;-41
2021/08/08 11:55:05;;;;;;;1.60;1.50;;;;;;;;;;5073453;28;20086;-41
2021/08/08 11:57:31;;;;;;;2.03;1.70;;;;;;;;;;5080556;28;20487;-41
2021/08/08 11:59:58;;;;;;;1.80;1.70;;;;;;;;;;5079539;28;20016;-40
2021/08/08 12:02:25;;;;;;;1.70;1.60;;;;;;;;;;5079192;28;20012;-40
2021/08/08 12:04:55;;;;;;;3.25;1.55;;;;;;;;;;5080385;28;20021;-41
2021/08/08 12:07:28;;;;;;;2.03;1.70;;;;;;;;;;5081275;28;20016;-40
2021/08/08 12:09:54;;;;;;;1.90;1.70;;;;;;;;;;5080775;28;20023;-40
2021/08/08 12:12:21;;;;;;;1.70;1.60;;;;;;;;;;5079385;28;20025;-41
2021/08/08 12:14:56;;;;;;;2.95;1.38;;;;;;;;;;5081120;28;20067;-41
2021/08/08 12:17:22;;;;;;;2.08;1.90;;;;;;;;;;5081113;28;20044;-40
2021/08/08 12:19:50;;;;;;;1.98;1.88;;;;;;;;;;5079874;28;20024;-41
2021/08/08 12:22:17;;;;;;;2.10;1.90;;;;;;;;;;5079425;28;20024;-40
2021/08/08 12:24:44;;;;;;;1.80;1.70;;;;;;;;;;5081120;28;20073;-41
2021/08/08 12:27:11;;;;;;;1.77;1.67;;;;;;;;;;5080035;28;20074;-41
2021/08/08 12:29:38;;;;;;;3.13;1.75;;;;;;;;;;5081605;28;20028;-41
2021/08/08 12:32:05;;;;;;;2.28;1.52;;;;;;;;;;5082631;28;20111;-40
2021/08/08 12:34:31;;;;;;;1.65;1.55;;;;;;;;;;5066855;28;20083;-41
2021/08/08 12:37:06;;;;;;;1.83;1.60;;;;;;;;;;5086014;28;20044;-41
2021/08/08 12:39:32;;;;;;;1.65;1.55;;;;;;;;;;5086463;28;20029;-41
2021/08/08 12:41:59;;;;;;;1.67;1.58;;;;;;;;;;5085897;28;20669;-41
2021/08/08 12:44:32;;;;;;;1.63;1.52;;;;;;;;;;5067298;28;20016;-41
2021/08/08 12:47:02;;;;;;;1.40;1.30;;;;;;;;;;5085425;28;20131;-40
2021/08/08 12:49:38;;;;;;;1.35;1.25;;;;;;;;;;5083647;28;20016;-42
2021/08/08 12:52:05;;;;;;;1.33;1.23;;;;;;;;;;5082834;28;20028;-41
2021/08/08 12:54:32;;;;;;;1.58;1.48;;;;;;;;;;5065879;28;20481;-41
2021/08/08 12:56:58;;;;;;;3.17;1.70;;;;;;;;;;5084607;28;20036;-41
2021/08/08 12:59:24;;;;;;;3.15;1.17;;;;;;;;;;5082673;28;20021;-42
2021/08/08 13:01:50;;;;;;;1.85;1.70;;;;;;;;;;5083777;28;20028;-41
2021/08/08 13:04:17;;;;;;;2.03;1.48;;;;;;;;;;5085179;28;20066;-41
2021/08/08 13:06:43;;;;;;;1.15;1.15;;;;;;;;;;5082757;28;20074;-39
2021/08/08 13:09:09;;;;;;;4.00;1.50;;;;;;;;;;5084238;28;20020;-41
2021/08/08 13:11:35;;;;;;;1.55;1.45;;;;;;;;;;5084034;28;20104;-40
2021/08/08 13:14:01;;;;;;;1.40;1.30;;;;;;;;;;5082388;28;20479;-41
2021/08/08 13:16:27;;;;;;;1.60;1.50;;;;;;;;;;5085162;28;20044;-41
2021/08/08 13:18:53;;;;;;;1.40;1.30;;;;;;;;;;5083163;28;20032;-41
2021/08/08 13:21:19;;;;;;;1.40;1.30;;;;;;;;;;5068724;28;20092;-41
2021/08/08 13:23:45;;;;;;;1.23;1.08;;;;;;;;;;5082524;28;20150;-40
2021/08/08 13:26:11;;;;;;;1.48;1.35;;;;;;;;;;5083446;28;20020;-43
2021/08/08 13:28:37;;;;;;;1.67;1.23;;;;;;;;;;5087231;28;20793;-41
2021/08/08 13:31:06;;;;;;;1.40;1.30;;;;;;;;;;5081672;28;20420;-42
2021/08/08 13:33:32;;;;;;;1.42;1.30;;;;;;;;;;5083702;28;20042;-42
2021/08/08 13:35:58;;;;;;;1.98;1.88;;;;;;;;;;5084381;28;20119;-42
2021/08/08 13:38:24;;;;;;;1.63;1.48;;;;;;;;;;5082144;28;20044;-42
2021/08/08 13:40:50;;;;;;;1.80;1.70;;;;;;;;;;5082840;28;20533;-42
2021/08/08 13:43:16;;;;;;;3.00;1.48;;;;;;;;;;5083559;28;20020;-41
2021/08/08 13:45:42;;;;;;;2.42;1.42;;;;;;;;;;5084066;28;20430;-41
2021/08/08 13:48:10;;;;;;;1.33;1.15;;;;;;;;;;5063224;28;20025;-41
2021/08/08 13:50:36;;;;;;;1.88;1.42;;;;;;;;;;5083386;28;20067;-41
2021/08/08 13:53:02;;;;;;;2.42;1.42;;;;;;;;;;5081577;28;20097;-41
2021/08/08 13:55:28;;;;;;;1.90;1.30;;;;;;;;;;5067772;28;20103;-42
2021/08/08 13:57:54;;;;;;;1.63;1.52;;;;;;;;;;5083253;28;20047;-42
2021/08/08 14:00:20;;;;;;;1.63;1.30;;;;;;;;;;5081244;28;20119;-40
2021/08/08 14:02:46;;;;;;;1.70;1.30;;;;;;;;;;5083005;28;20738;-40
2021/08/08 14:05:13;;;;;;;1.13;1.05;;;;;;;;;;5069925;28;20035;-41
2021/08/08 14:07:40;;;;;;;1.33;1.23;;;;;;;;;;5088492;28;20078;-41
2021/08/08 14:10:07;;;;;;;1.52;1.17;;;;;;;;;;5083143;28;20016;-43
2021/08/08 14:12:34;;;;;;;2.28;1.08;;;;;;;;;;5087342;28;20031;-42
2021/08/08 14:15:00;;;;;;;1.60;1.35;;;;;;;;;;5083586;28;20119;-41
2021/08/08 14:17:26;;;;;;;1.98;1.30;;;;;;;;;;5082739;28;20040;-41
2021/08/08 14:19:52;;;;;;;1.50;1.40;;;;;;;;;;5086824;28;20494;-40
2021/08/08 14:22:18;;;;;;;1.33;1.20;;;;;;;;;;5087748;28;20028;-42
2021/08/08 14:24:46;;;;;;;2.25;1.40;;;;;;;;;;5090972;28;20076;-42
2021/08/08 14:27:12;;;;;;;2.13;1.20;;;;;;;;;;5083290;28;20024;-41
2021/08/08 14:29:38;;;;;;;1.50;1.40;;;;;;;;;;5086287;28;20368;-41
2021/08/08 14:32:04;;;;;;;2.63;1.50;;;;;;;;;;5082207;28;20156;-41
2021/08/08 14:34:30;;;;;;;1.60;1.50;;;;;;;;;;5082160;28;20027;-41
2021/08/08 14:36:56;;;;;;;1.38;1.30;;;;;;;;;;5086697;28;20466;-41
2021/08/08 14:39:25;;;;;;;1.55;1.33;;;;;;;;;;5083280;28;20012;-42
2021/08/08 14:41:51;;;;;;;2.80;1.40;;;;;;;;;;5084002;28;20132;-41